createdAt,value
2023-02-05T00:01:36.756Z,7.67
2023-02-05T00:04:03.616Z,7.97
2023-02-05T00:06:30.394Z,7.73
2023-02-05T00:08:57.699Z,6.93
2023-02-05T00:11:27.007Z,8.10
2023-02-05T00:13:54.094Z,8.33
2023-02-05T00:16:21.827Z,7.97
2023-02-05T00:18:50.764Z,7.67
2023-02-05T00:21:20.795Z,8.37
2023-02-05T00:23:50.112Z,8.50
2023-02-05T00:26:19.532Z,8.40
2023-02-05T00:28:46.483Z,7.40
2023-02-05T00:31:15.290Z,8.53
2023-02-05T00:33:47.956Z,7.80
2023-02-05T00:36:19.688Z,7.53
2023-02-05T00:38:49.355Z,7.67
2023-02-05T00:41:16.402Z,7.67
2023-02-05T00:43:43.230Z,8.17
2023-02-05T00:46:10.632Z,8.10
2023-02-05T00:48:37.587Z,7.57
2023-02-05T00:51:04.401Z,7.50
2023-02-05T00:53:33.346Z,8.00
2023-02-05T00:56:02.660Z,8.53
2023-02-05T00:58:31.776Z,8.20
2023-02-05T01:01:00.822Z,8.30
2023-02-05T01:03:27.853Z,8.60
2023-02-05T01:05:59.540Z,8.47
2023-02-05T01:08:26.322Z,8.53
2023-02-05T01:10:54.310Z,7.90
2023-02-05T01:13:21.119Z,7.70
2023-02-05T01:15:47.895Z,7.73
2023-02-05T01:18:17.233Z,8.03
2023-02-05T01:20:44.104Z,7.97
2023-02-05T01:23:11.177Z,7.67
2023-02-05T01:25:38.253Z,7.83
2023-02-05T01:28:07.582Z,8.30
2023-02-05T01:30:37.110Z,8.10
2023-02-05T01:33:06.856Z,7.87
2023-02-05T01:35:33.854Z,7.93
2023-02-05T01:38:00.883Z,8.37
2023-02-05T01:40:27.686Z,8.83
2023-02-05T01:42:56.688Z,9.37
2023-02-05T01:45:23.585Z,9.30
2023-02-05T01:47:57.301Z,9.70
2023-02-05T01:50:34.537Z,8.83
2023-02-05T01:53:05.268Z,8.53
2023-02-05T01:55:37.817Z,8.70
2023-02-05T01:58:04.576Z,9.03
2023-02-05T02:00:31.347Z,8.07
2023-02-05T02:03:00.376Z,8.23
2023-02-05T02:05:27.203Z,8.07
2023-02-05T02:07:58.670Z,8.23
2023-02-05T02:10:27.974Z,8.27
2023-02-05T02:12:56.642Z,7.53
2023-02-05T02:15:25.632Z,7.63
2023-02-05T02:18:17.784Z,7.37
2023-02-05T02:20:44.589Z,7.30
2023-02-05T02:23:32.838Z,8.00
2023-02-05T02:26:40.715Z,7.90
2023-02-05T02:29:10.318Z,8.00
2023-02-05T02:31:46.840Z,7.80
2023-02-05T02:34:22.942Z,6.90
2023-02-05T02:37:07.541Z,6.90
2023-02-05T02:40:01.879Z,7.30
2023-02-05T02:42:33.686Z,6.37
2023-02-05T02:45:01.095Z,6.43
2023-02-05T02:47:48.456Z,6.60
2023-02-05T02:50:39.964Z,6.53
2023-02-05T02:53:18.861Z,6.03
2023-02-05T02:55:45.807Z,6.43
2023-02-05T02:58:33.407Z,6.40
2023-02-05T03:01:02.915Z,6.60
2023-02-05T03:03:29.806Z,6.30
2023-02-05T03:05:56.610Z,5.97
2023-02-05T03:08:37.438Z,7.00
2023-02-05T03:11:13.790Z,5.93
2023-02-05T03:13:43.496Z,6.20
2023-02-05T03:16:13.191Z,6.10
2023-02-05T03:18:40.001Z,5.87
2023-02-05T03:21:12.616Z,6.10
2023-02-05T03:23:41.528Z,5.87
2023-02-05T03:26:35.112Z,5.90
2023-02-05T03:29:13.306Z,5.77
2023-02-05T03:32:04.495Z,5.83
2023-02-05T03:34:55.164Z,5.67
2023-02-05T03:37:38.787Z,5.83
2023-02-05T03:40:38.461Z,6.03
2023-02-05T03:43:42.981Z,5.43
2023-02-05T03:46:34.588Z,5.43
2023-02-05T03:49:19.839Z,6.20
2023-02-05T03:51:53.373Z,6.97
2023-02-05T03:54:32.391Z,6.73
2023-02-05T03:57:04.557Z,5.97
2023-02-05T03:59:33.526Z,5.87
2023-02-05T04:02:05.107Z,6.00
2023-02-05T04:04:32.110Z,6.50
2023-02-05T04:06:58.882Z,6.37
2023-02-05T04:09:27.761Z,6.60
2023-02-05T04:11:54.508Z,6.40
2023-02-05T04:14:21.308Z,6.53
2023-02-05T04:16:50.553Z,6.87
2023-02-05T04:19:19.613Z,6.53
2023-02-05T04:21:46.387Z,6.03
2023-02-05T04:24:13.201Z,7.20
2023-02-05T04:26:39.977Z,5.97
2023-02-05T04:29:06.724Z,6.13
2023-02-05T04:31:36.004Z,6.00
2023-02-05T04:34:02.821Z,6.47
2023-02-05T04:36:31.844Z,6.50
2023-02-05T04:38:58.696Z,5.87
2023-02-05T04:41:28.179Z,6.20
2023-02-05T04:43:54.980Z,6.07
2023-02-05T04:46:21.876Z,6.27
2023-02-05T04:48:51.212Z,6.03
2023-02-05T04:51:20.307Z,6.07
2023-02-05T04:53:47.140Z,6.63
2023-02-05T04:56:15.412Z,6.27
2023-02-05T04:58:44.694Z,6.40
2023-02-05T05:01:18.863Z,6.60
2023-02-05T05:03:45.759Z,7.20
2023-02-05T05:06:15.365Z,6.40
2023-02-05T05:08:42.329Z,6.50
2023-02-05T05:11:11.063Z,6.20
2023-02-05T05:13:37.971Z,6.87
2023-02-05T05:16:05.460Z,6.47
2023-02-05T05:18:32.347Z,6.23
2023-02-05T05:21:04.075Z,6.30
2023-02-05T05:23:31.309Z,5.83
2023-02-05T05:26:03.376Z,6.17
2023-02-05T05:28:33.859Z,6.40
2023-02-05T05:31:07.877Z,6.40
2023-02-05T05:33:34.789Z,5.93
2023-02-05T05:36:01.648Z,6.13
2023-02-05T05:38:28.432Z,7.10
2023-02-05T05:41:13.926Z,6.83
2023-02-05T05:43:46.697Z,7.27
2023-02-05T05:46:15.734Z,6.50
2023-02-05T05:48:42.740Z,6.83
2023-02-05T05:51:09.661Z,6.87
2023-02-05T05:53:36.457Z,6.63
2023-02-05T05:56:08.626Z,6.67
2023-02-05T05:58:37.544Z,6.47
2023-02-05T06:01:04.752Z,6.60
2023-02-05T06:03:31.556Z,6.20
2023-02-05T06:06:03.074Z,5.97
2023-02-05T06:08:32.357Z,6.37
2023-02-05T06:11:01.767Z,6.50
2023-02-05T06:13:28.592Z,6.20
2023-02-05T06:15:55.450Z,6.63
2023-02-05T06:18:25.019Z,6.20
2023-02-05T06:20:54.007Z,6.50
2023-02-05T06:23:20.782Z,6.33
2023-02-05T06:25:47.588Z,6.13
2023-02-05T06:28:19.474Z,6.43
2023-02-05T06:30:46.256Z,6.13
2023-02-05T06:33:15.182Z,6.07
2023-02-05T06:35:42.008Z,6.27
2023-02-05T06:38:11.181Z,6.43
2023-02-05T06:40:37.974Z,6.13
2023-02-05T06:43:04.784Z,5.73
2023-02-05T06:45:34.067Z,6.63
2023-02-05T06:48:01.030Z,6.30
2023-02-05T06:50:30.399Z,6.20
2023-02-05T06:52:59.700Z,6.50
2023-02-05T06:55:26.513Z,6.50
2023-02-05T06:57:53.309Z,6.83
2023-02-05T07:00:20.312Z,6.60
2023-02-05T07:02:47.081Z,6.03
2023-02-05T07:05:16.077Z,6.63
2023-02-05T07:07:42.981Z,6.70
2023-02-05T07:10:09.970Z,6.60
2023-02-05T07:12:36.809Z,6.47
2023-02-05T07:15:03.643Z,6.30
2023-02-05T07:17:30.466Z,7.20
2023-02-05T07:19:58.741Z,6.33
2023-02-05T07:22:25.730Z,6.30
2023-02-05T07:24:55.084Z,6.00
2023-02-05T07:27:21.894Z,6.13
2023-02-05T07:29:48.695Z,6.00
2023-02-05T07:32:15.466Z,6.20
2023-02-05T07:34:43.938Z,5.53
2023-02-05T07:37:14.306Z,6.00
2023-02-05T07:39:41.189Z,5.80
2023-02-05T07:42:07.976Z,5.80
2023-02-05T07:44:34.808Z,6.27
2023-02-05T07:47:02.136Z,5.43
2023-02-05T07:49:31.260Z,5.60
2023-02-05T07:52:02.835Z,6.07
2023-02-05T07:54:31.770Z,6.43
2023-02-05T07:57:00.908Z,6.37
2023-02-05T07:59:30.210Z,6.23
2023-02-05T08:01:57.006Z,5.77
2023-02-05T08:04:23.843Z,6.03
2023-02-05T08:06:50.640Z,5.80
2023-02-05T08:09:17.399Z,5.93
2023-02-05T08:11:44.207Z,8.50
2023-02-05T08:14:13.127Z,6.67
2023-02-05T08:16:40.118Z,6.13
2023-02-05T08:19:07.321Z,5.57
2023-02-05T08:21:36.665Z,5.80
2023-02-05T08:24:03.580Z,5.40
2023-02-05T08:26:30.397Z,5.57
2023-02-05T08:28:57.212Z,5.57
2023-02-05T08:31:24.082Z,6.10
2023-02-05T08:33:53.152Z,5.80
2023-02-05T08:36:22.475Z,5.43
2023-02-05T08:38:51.736Z,6.10
2023-02-05T08:41:18.561Z,6.23
2023-02-05T08:43:49.192Z,6.00
2023-02-05T08:46:20.986Z,5.90
2023-02-05T08:48:48.487Z,6.93
2023-02-05T08:51:19.223Z,6.17
2023-02-05T08:53:48.406Z,6.30
2023-02-05T08:56:19.232Z,6.30
2023-02-05T08:58:46.990Z,5.47
2023-02-05T09:01:18.043Z,6.43
2023-02-05T09:03:45.236Z,5.77
2023-02-05T09:06:14.340Z,6.57
2023-02-05T09:08:43.640Z,6.40
2023-02-05T09:11:10.836Z,5.90
2023-02-05T09:13:38.126Z,6.53
2023-02-05T09:16:05.230Z,6.30
2023-02-05T09:18:32.112Z,7.13
2023-02-05T09:20:59.004Z,6.30
2023-02-05T09:23:28.031Z,6.67
2023-02-05T09:25:54.801Z,7.27
2023-02-05T09:28:21.609Z,6.80
2023-02-05T09:30:51.712Z,6.30
2023-02-05T09:33:18.788Z,6.20
2023-02-05T09:35:47.727Z,6.47
2023-02-05T09:38:14.984Z,6.80
2023-02-05T09:41:02.750Z,6.50
2023-02-05T09:43:50.818Z,6.17
2023-02-05T09:46:38.840Z,6.77
2023-02-05T09:49:22.057Z,6.33
2023-02-05T09:51:51.377Z,6.47
2023-02-05T09:54:25.717Z,6.27
2023-02-05T09:56:57.034Z,6.33
2023-02-05T09:59:25.377Z,6.70
2023-02-05T10:01:59.547Z,6.83
2023-02-05T10:04:27.420Z,6.53
2023-02-05T10:07:18.632Z,7.13
2023-02-05T10:10:18.336Z,7.17
2023-02-05T10:13:00.114Z,7.13
2023-02-05T10:15:38.512Z,6.20
2023-02-05T10:18:14.130Z,6.13
2023-02-05T10:21:15.157Z,5.83
2023-02-05T10:23:41.923Z,5.23
2023-02-05T10:26:12.343Z,4.57
2023-02-05T10:29:00.973Z,4.10
2023-02-05T10:31:44.390Z,3.90
2023-02-05T10:34:42.069Z,3.87
2023-02-05T10:37:14.759Z,4.40
2023-02-05T10:39:41.579Z,4.03
2023-02-05T10:42:32.896Z,4.07
2023-02-05T10:45:12.010Z,4.20
2023-02-05T10:47:53.747Z,4.13
2023-02-05T10:50:25.793Z,3.87
2023-02-05T10:52:52.664Z,3.90
2023-02-05T10:55:19.810Z,3.90
2023-02-05T10:57:46.609Z,4.60
2023-02-05T11:00:16.005Z,4.30
2023-02-05T11:02:44.205Z,4.80
2023-02-05T11:05:27.030Z,3.90
2023-02-05T11:07:54.416Z,4.97
2023-02-05T11:10:25.039Z,5.10
2023-02-05T11:13:02.409Z,5.07
2023-02-05T11:15:33.318Z,5.33
2023-02-05T11:18:06.924Z,5.60
2023-02-05T11:20:39.932Z,5.33
2023-02-05T11:23:19.806Z,5.70
2023-02-05T11:25:58.693Z,5.43
2023-02-05T11:28:32.046Z,4.67
2023-02-05T11:31:19.124Z,5.17
2023-02-05T11:33:50.776Z,5.53
2023-02-05T11:36:24.525Z,5.47
2023-02-05T11:38:56.440Z,5.43
2023-02-05T11:41:48.080Z,5.77
2023-02-05T11:44:26.187Z,5.63
2023-02-05T11:46:56.974Z,4.40
2023-02-05T11:49:29.262Z,5.00
2023-02-05T11:51:56.155Z,5.20
2023-02-05T11:54:30.850Z,5.23
2023-02-05T11:57:16.259Z,5.43
2023-02-05T11:59:57.153Z,5.60
2023-02-05T12:02:35.320Z,7.43
2023-02-05T12:05:16.258Z,6.27
2023-02-05T12:08:09.451Z,6.30
2023-02-05T12:10:54.036Z,6.67
2023-02-05T12:13:38.671Z,6.70
2023-02-05T12:16:11.828Z,6.40
2023-02-05T12:19:22.188Z,5.60
2023-02-05T12:21:51.851Z,5.47
2023-02-05T12:24:22.860Z,6.03
2023-02-05T12:26:50.148Z,5.13
2023-02-05T12:29:51.870Z,5.13
2023-02-05T12:32:29.949Z,5.23
2023-02-05T12:35:08.480Z,5.30
2023-02-05T12:37:36.129Z,4.83
2023-02-05T12:40:35.189Z,4.97
2023-02-05T12:43:34.103Z,4.77
2023-02-05T12:46:05.028Z,4.60
2023-02-05T12:48:59.141Z,4.50
2023-02-05T12:51:32.108Z,4.53
2023-02-05T12:54:05.133Z,4.50
2023-02-05T12:56:56.776Z,4.30
2023-02-05T12:59:49.642Z,3.77
2023-02-05T13:02:39.173Z,4.07
2023-02-05T13:05:13.681Z,3.97
2023-02-05T13:07:46.357Z,4.07
2023-02-05T13:10:20.792Z,4.00
2023-02-05T13:12:50.382Z,4.30
2023-02-05T13:15:25.673Z,4.50
2023-02-05T13:18:05.557Z,4.57
2023-02-05T13:21:04.962Z,4.60
2023-02-05T13:23:50.332Z,4.27
2023-02-05T13:26:35.883Z,4.37
2023-02-05T13:29:12.846Z,4.33
2023-02-05T13:31:54.694Z,4.63
2023-02-05T13:34:22.954Z,4.23
2023-02-05T13:37:20.888Z,4.23
2023-02-05T13:40:26.340Z,5.20
2023-02-05T13:42:58.733Z,4.80
2023-02-05T13:46:02.615Z,5.00
2023-02-05T13:48:48.203Z,4.27
2023-02-05T13:51:46.178Z,4.90
2023-02-05T13:54:22.976Z,4.60
2023-02-05T13:57:04.817Z,4.23
2023-02-05T13:59:34.756Z,4.10
2023-02-05T14:02:01.847Z,4.20
2023-02-05T14:04:42.376Z,4.10
2023-02-05T14:07:17.076Z,4.20
2023-02-05T14:09:56.391Z,4.83
2023-02-05T14:12:27.670Z,4.10
2023-02-05T14:15:16.360Z,4.60
2023-02-05T14:17:43.115Z,4.33
2023-02-05T14:20:24.992Z,4.30
2023-02-05T14:23:00.890Z,4.70
2023-02-05T14:25:42.826Z,4.50
2023-02-05T14:28:15.638Z,3.97
2023-02-05T14:30:45.801Z,4.43
2023-02-05T14:33:41.391Z,4.53
2023-02-05T14:36:17.325Z,4.10
2023-02-05T14:38:45.355Z,4.20
2023-02-05T14:41:12.683Z,4.33
2023-02-05T14:43:44.032Z,3.77
2023-02-05T14:46:29.275Z,3.90
2023-02-05T14:49:00.382Z,4.33
2023-02-05T14:51:34.364Z,3.63
2023-02-05T14:54:05.318Z,4.27
2023-02-05T14:56:39.740Z,4.17
2023-02-05T14:59:34.826Z,4.50
2023-02-05T15:02:06.744Z,4.33
2023-02-05T15:04:49.403Z,4.20
2023-02-05T15:07:22.707Z,4.20
2023-02-05T15:10:07.736Z,4.47
2023-02-05T15:12:55.074Z,4.47
2023-02-05T15:15:33.354Z,4.40
2023-02-05T15:18:23.260Z,4.47
2023-02-05T15:20:50.074Z,4.53
2023-02-05T15:23:29.677Z,4.20
2023-02-05T15:26:22.424Z,4.90
2023-02-05T15:29:03.452Z,4.63
2023-02-05T15:31:34.407Z,4.20
2023-02-05T15:34:22.318Z,4.77
2023-02-05T15:36:56.071Z,4.40
2023-02-05T15:39:32.875Z,4.30
2023-02-05T15:42:00.247Z,4.40
2023-02-05T15:44:31.622Z,4.70
2023-02-05T15:46:59.893Z,4.20
2023-02-05T15:49:40.580Z,4.23
2023-02-05T15:52:07.403Z,4.03
2023-02-05T15:54:35.669Z,3.90
2023-02-05T15:57:02.487Z,4.20
2023-02-05T15:59:32.037Z,4.50
2023-02-05T16:02:04.742Z,4.17
2023-02-05T16:04:37.277Z,4.53
2023-02-05T16:07:17.378Z,4.60
2023-02-05T16:09:47.829Z,4.20
2023-02-05T16:12:17.904Z,4.87
2023-02-05T16:14:44.732Z,4.73
2023-02-05T16:17:22.138Z,4.70
2023-02-05T16:19:51.786Z,5.00
2023-02-05T16:23:05.223Z,4.80
2023-02-05T16:25:41.392Z,4.43
2023-02-05T16:28:36.932Z,5.53
2023-02-05T16:31:03.971Z,5.30
2023-02-05T16:33:42.473Z,5.23
2023-02-05T16:36:20.888Z,4.93
2023-02-05T16:38:58.717Z,4.50
2023-02-05T16:42:00.619Z,4.57
2023-02-05T16:44:30.077Z,5.40
2023-02-05T16:47:17.945Z,5.20
2023-02-05T16:49:45.677Z,5.23
2023-02-05T16:52:44.315Z,5.83
2023-02-05T16:55:26.407Z,6.07
2023-02-05T16:57:53.885Z,5.10
2023-02-05T17:00:21.603Z,5.07
2023-02-05T17:02:48.403Z,5.03
2023-02-05T17:05:29.337Z,4.90
2023-02-05T17:08:00.869Z,5.00
2023-02-05T17:10:30.480Z,5.23
2023-02-05T17:12:57.890Z,5.47
2023-02-05T17:15:26.261Z,4.73
2023-02-05T17:17:56.602Z,5.33
2023-02-05T17:20:25.234Z,4.80
2023-02-05T17:23:03.370Z,5.30
2023-02-05T17:25:42.720Z,5.00
2023-02-05T17:28:28.131Z,4.77
2023-02-05T17:31:01.952Z,4.37
2023-02-05T17:33:29.144Z,4.40
2023-02-05T17:35:58.393Z,4.93
2023-02-05T17:38:25.142Z,5.50
2023-02-05T17:41:12.028Z,4.77
2023-02-05T17:43:39.259Z,5.60
2023-02-05T17:46:14.043Z,7.00
2023-02-05T17:48:44.679Z,7.07
2023-02-05T17:51:21.178Z,7.57
2023-02-05T17:53:48.765Z,8.60
2023-02-05T17:56:16.116Z,8.83
2023-02-05T17:58:42.938Z,8.43
2023-02-05T18:01:12.229Z,10.30
2023-02-05T18:03:39.250Z,10.30
2023-02-05T18:06:08.557Z,10.30
2023-02-05T18:08:37.185Z,9.87
2023-02-05T18:11:04.030Z,10.67
2023-02-05T18:13:33.175Z,10.97
2023-02-05T18:16:03.499Z,10.00
2023-02-05T18:18:31.149Z,11.13
2023-02-05T18:21:00.824Z,9.90
2023-02-05T18:23:29.787Z,10.60
2023-02-05T18:25:59.024Z,9.07
2023-02-05T18:28:28.340Z,10.33
2023-02-05T18:30:58.816Z,9.87
2023-02-05T18:33:28.066Z,10.30
2023-02-05T18:35:59.228Z,10.37
2023-02-05T18:38:26.116Z,11.07
2023-02-05T18:40:52.961Z,10.73
2023-02-05T18:43:19.734Z,10.10
2023-02-05T18:45:46.581Z,11.33
2023-02-05T18:48:14.553Z,10.57
2023-02-05T18:50:41.343Z,11.23
2023-02-05T18:53:08.078Z,10.37
2023-02-05T18:55:37.076Z,11.40
2023-02-05T18:58:04.454Z,12.33
2023-02-05T19:00:32.124Z,11.93
2023-02-05T19:03:01.225Z,12.13
2023-02-05T19:05:28.259Z,13.03
2023-02-05T19:07:55.091Z,12.90
2023-02-05T19:10:24.309Z,13.57
2023-02-05T19:12:51.127Z,14.73
2023-02-05T19:15:18.156Z,14.23
2023-02-05T19:17:44.939Z,13.80
2023-02-05T19:20:16.440Z,13.93
2023-02-05T19:22:43.202Z,15.17
2023-02-05T19:25:09.996Z,14.00
2023-02-05T19:27:36.772Z,14.60
2023-02-05T19:30:05.867Z,14.57
2023-02-05T19:32:32.671Z,15.07
2023-02-05T19:35:00.096Z,15.60
2023-02-05T19:37:31.684Z,15.13
2023-02-05T19:40:00.686Z,16.13
2023-02-05T19:42:30.512Z,16.63
2023-02-05T19:44:57.342Z,15.93
2023-02-05T19:47:24.121Z,16.97
2023-02-05T19:49:54.125Z,17.07
2023-02-05T19:52:23.041Z,15.57
2023-02-05T19:54:49.826Z,17.10
2023-02-05T19:57:16.615Z,16.20
2023-02-05T19:59:43.614Z,16.13
2023-02-05T20:02:19.270Z,17.13
2023-02-05T20:04:48.409Z,15.70
2023-02-05T20:07:15.258Z,16.53
2023-02-05T20:09:42.122Z,16.20
2023-02-05T20:12:13.026Z,16.97
2023-02-05T20:14:39.913Z,17.37
2023-02-05T20:17:07.793Z,17.43
2023-02-05T20:19:34.658Z,16.93
2023-02-05T20:22:03.833Z,17.47
2023-02-05T20:24:32.730Z,18.73
2023-02-05T20:27:01.644Z,18.40
2023-02-05T20:29:48.963Z,19.03
2023-02-05T20:32:18.109Z,18.67
2023-02-05T20:34:50.146Z,19.40
2023-02-05T20:37:19.433Z,19.77
2023-02-05T20:39:46.349Z,18.83
2023-02-05T20:42:16.260Z,20.80
2023-02-05T20:44:45.542Z,20.17
2023-02-05T20:47:13.329Z,21.30
2023-02-05T20:49:40.748Z,22.27
2023-02-05T20:52:10.231Z,21.13
2023-02-05T20:54:39.614Z,22.27
2023-02-05T20:57:07.478Z,23.30
2023-02-05T20:59:34.543Z,25.43
2023-02-05T21:02:02.567Z,23.57
2023-02-05T21:04:31.982Z,24.77
2023-02-05T21:07:01.192Z,25.47
2023-02-05T21:09:28.041Z,24.50
2023-02-05T21:11:59.619Z,26.10
2023-02-05T21:14:26.409Z,26.93
2023-02-05T21:16:53.338Z,26.43
2023-02-05T21:19:25.207Z,26.53
2023-02-05T21:21:52.243Z,27.23
2023-02-05T21:24:20.756Z,27.90
2023-02-05T21:26:48.582Z,26.43
2023-02-05T21:29:16.990Z,26.60
2023-02-05T21:31:46.411Z,27.07
2023-02-05T21:34:15.032Z,25.67
2023-02-05T21:36:41.854Z,26.27
2023-02-05T21:39:10.410Z,26.40
2023-02-05T21:41:37.185Z,26.20
2023-02-05T21:44:05.004Z,27.83
2023-02-05T21:46:31.869Z,27.70
2023-02-05T21:49:01.753Z,27.80
2023-02-05T21:51:30.658Z,27.60
2023-02-05T21:53:59.085Z,28.97
2023-02-05T21:56:30.147Z,28.13
2023-02-05T21:58:59.025Z,27.90
2023-02-05T22:01:30.442Z,27.73
2023-02-05T22:04:05.133Z,27.27
2023-02-05T22:06:33.116Z,27.83
2023-02-05T22:09:03.887Z,30.27
2023-02-05T22:11:30.865Z,29.17
2023-02-05T22:14:00.252Z,29.67
2023-02-05T22:16:28.969Z,31.03
2023-02-05T22:18:56.061Z,28.27
2023-02-05T22:21:26.894Z,30.30
2023-02-05T22:23:56.881Z,28.53
2023-02-05T22:26:32.439Z,29.03
2023-02-05T22:28:59.690Z,28.67
2023-02-05T22:31:29.310Z,30.17
2023-02-05T22:33:58.863Z,28.77
2023-02-05T22:36:27.568Z,29.57
2023-02-05T22:38:54.423Z,29.07
2023-02-05T22:41:23.160Z,30.77
2023-02-05T22:43:50.186Z,29.97
2023-02-05T22:46:23.061Z,28.87
2023-02-05T22:48:50.503Z,31.43
2023-02-05T22:51:31.527Z,31.87
2023-02-05T22:54:00.738Z,32.80
2023-02-05T22:56:30.728Z,31.40
2023-02-05T22:59:02.059Z,32.30
2023-02-05T23:01:31.723Z,33.93
2023-02-05T23:03:58.719Z,33.63
2023-02-05T23:06:31.952Z,32.23
2023-02-05T23:09:00.502Z,33.60
2023-02-05T23:11:29.968Z,35.20
2023-02-05T23:13:57.251Z,38.73
2023-02-05T23:16:27.817Z,36.60
2023-02-05T23:18:56.576Z,38.63
2023-02-05T23:21:24.567Z,40.20
2023-02-05T23:23:53.940Z,41.97
2023-02-05T23:26:42.584Z,45.67
2023-02-05T23:29:12.342Z,44.87
2023-02-05T23:31:41.536Z,47.90
2023-02-05T23:34:10.792Z,49.13
2023-02-05T23:36:40.070Z,49.33
2023-02-05T23:39:06.841Z,48.40
2023-02-05T23:41:36.723Z,50.90
2023-02-05T23:44:03.671Z,51.03
2023-02-05T23:46:30.543Z,50.87
2023-02-05T23:48:58.203Z,52.33
2023-02-05T23:51:27.391Z,49.47
2023-02-05T23:53:54.161Z,51.17
2023-02-05T23:56:20.942Z,50.80
2023-02-05T23:58:47.823Z,48.17
